sensor_id;sensor_type;location;lat;lon;timestamp;temperature;humidity
24162;DHT22;12318;51.262;7.066;2023-01-01T00:00:16;15.40;97.20
24162;DHT22;12318;51.262;7.066;2023-01-01T00:02:42;15.30;97.10
24162;DHT22;12318;51.262;7.066;2023-01-01T00:05:08;15.30;97.30
24162;DHT22;12318;51.262;7.066;2023-01-01T00:07:33;15.30;97.40
24162;DHT22;12318;51.262;7.066;2023-01-01T00:09:59;15.30;97.30
24162;DHT22;12318;51.262;7.066;2023-01-01T00:12:43;15.30;97.20
24162;DHT22;12318;51.262;7.066;2023-01-01T00:15:09;15.30;97.20
24162;DHT22;12318;51.262;7.066;2023-01-01T00:17:38;15.30;97.10
24162;DHT22;12318;51.262;7.066;2023-01-01T00:20:04;15.30;96.80
24162;DHT22;12318;51.262;7.066;2023-01-01T00:22:30;15.30;96.70
24162;DHT22;12318;51.262;7.066;2023-01-01T00:24:56;15.30;96.60
24162;DHT22;12318;51.262;7.066;2023-01-01T00:27:21;15.40;96.60
24162;DHT22;12318;51.262;7.066;2023-01-01T00:29:47;15.30;96.80
24162;DHT22;12318;51.262;7.066;2023-01-01T00:32:13;15.30;96.60
24162;DHT22;12318;51.262;7.066;2023-01-01T00:34:39;15.30;96.20
24162;DHT22;12318;51.262;7.066;2023-01-01T00:37:04;15.30;96.70
24162;DHT22;12318;51.262;7.066;2023-01-01T00:39:30;15.30;96.10
24162;DHT22;12318;51.262;7.066;2023-01-01T00:41:56;15.30;96.10
24162;DHT22;12318;51.262;7.066;2023-01-01T00:44:21;15.30;95.90
24162;DHT22;12318;51.262;7.066;2023-01-01T00:46:47;15.20;96.00
24162;DHT22;12318;51.262;7.066;2023-01-01T00:49:13;15.10;96.10
24162;DHT22;12318;51.262;7.066;2023-01-01T00:51:38;15.10;96.10
24162;DHT22;12318;51.262;7.066;2023-01-01T00:54:04;15.10;96.00
24162;DHT22;12318;51.262;7.066;2023-01-01T00:56:30;15.10;96.20
24162;DHT22;12318;51.262;7.066;2023-01-01T00:58:56;14.90;96.40
24162;DHT22;12318;51.262;7.066;2023-01-01T01:01:22;14.90;96.50
24162;DHT22;12318;51.262;7.066;2023-01-01T01:03:47;15.00;96.10
24162;DHT22;12318;51.262;7.066;2023-01-01T01:06:15;14.90;96.20
24162;DHT22;12318;51.262;7.066;2023-01-01T01:08:44;14.80;96.40
24162;DHT22;12318;51.262;7.066;2023-01-01T01:13:38;14.80;95.80
24162;DHT22;12318;51.262;7.066;2023-01-01T01:16:09;14.80;95.90
24162;DHT22;12318;51.262;7.066;2023-01-01T01:18:36;14.80;95.70
24162;DHT22;12318;51.262;7.066;2023-01-01T01:21:02;14.80;95.40
24162;DHT22;12318;51.262;7.066;2023-01-01T01:23:28;14.80;95.20
24162;DHT22;12318;51.262;7.066;2023-01-01T01:25:53;14.80;95.30
24162;DHT22;12318;51.262;7.066;2023-01-01T01:28:19;14.80;95.30
24162;DHT22;12318;51.262;7.066;2023-01-01T01:30:45;14.80;95.10
24162;DHT22;12318;51.262;7.066;2023-01-01T01:33:10;14.70;95.20
24162;DHT22;12318;51.262;7.066;2023-01-01T01:35:36;14.70;95.20
24162;DHT22;12318;51.262;7.066;2023-01-01T01:38:02;14.60;95.20
24162;DHT22;12318;51.262;7.066;2023-01-01T01:40:28;14.60;95.10
24162;DHT22;12318;51.262;7.066;2023-01-01T01:42:53;14.70;94.40
24162;DHT22;12318;51.262;7.066;2023-01-01T01:45:19;14.80;94.40
24162;DHT22;12318;51.262;7.066;2023-01-01T01:47:51;14.80;94.00
24162;DHT22;12318;51.262;7.066;2023-01-01T01:50:36;14.70;94.30
24162;DHT22;12318;51.262;7.066;2023-01-01T01:53:23;14.70;94.20
24162;DHT22;12318;51.262;7.066;2023-01-01T01:55:54;14.60;94.20
24162;DHT22;12318;51.262;7.066;2023-01-01T01:58:21;14.60;93.80
24162;DHT22;12318;51.262;7.066;2023-01-01T02:00:47;14.70;93.50
24162;DHT22;12318;51.262;7.066;2023-01-01T02:05:45;14.70;93.50
24162;DHT22;12318;51.262;7.066;2023-01-01T02:08:13;14.70;93.40
24162;DHT22;12318;51.262;7.066;2023-01-01T02:10:40;14.60;93.40
24162;DHT22;12318;51.262;7.066;2023-01-01T02:13:06;14.70;93.10
24162;DHT22;12318;51.262;7.066;2023-01-01T02:16:26;14.70;93.30
24162;DHT22;12318;51.262;7.066;2023-01-01T02:18:51;14.60;93.20
24162;DHT22;12318;51.262;7.066;2023-01-01T02:21:24;14.60;93.10
24162;DHT22;12318;51.262;7.066;2023-01-01T02:24:17;14.60;93.00
24162;DHT22;12318;51.262;7.066;2023-01-01T02:27:04;14.60;93.20
24162;DHT22;12318;51.262;7.066;2023-01-01T02:29:35;14.60;93.30
24162;DHT22;12318;51.262;7.066;2023-01-01T02:32:12;14.50;93.10
24162;DHT22;12318;51.262;7.066;2023-01-01T02:35:02;14.50;93.00
24162;DHT22;12318;51.262;7.066;2023-01-01T02:37:53;14.60;92.80
24162;DHT22;12318;51.262;7.066;2023-01-01T02:40:22;14.50;92.80
24162;DHT22;12318;51.262;7.066;2023-01-01T02:42:50;14.50;93.00
24162;DHT22;12318;51.262;7.066;2023-01-01T02:45:17;14.50;92.80
24162;DHT22;12318;51.262;7.066;2023-01-01T02:47:45;14.50;92.70
24162;DHT22;12318;51.262;7.066;2023-01-01T02:50:14;14.50;92.60
24162;DHT22;12318;51.262;7.066;2023-01-01T02:58:24;14.40;93.10
24162;DHT22;12318;51.262;7.066;2023-01-01T03:01:43;14.40;92.80
24162;DHT22;12318;51.262;7.066;2023-01-01T03:07:00;14.40;93.00
24162;DHT22;12318;51.262;7.066;2023-01-01T03:12:29;14.50;92.60
24162;DHT22;12318;51.262;7.066;2023-01-01T03:20:29;14.40;92.80
24162;DHT22;12318;51.262;7.066;2023-01-01T03:23:02;14.40;92.60
24162;DHT22;12318;51.262;7.066;2023-01-01T03:25:33;14.40;92.80
24162;DHT22;12318;51.262;7.066;2023-01-01T03:28:04;14.30;92.80
24162;DHT22;12318;51.262;7.066;2023-01-01T03:30:32;14.40;92.80
24162;DHT22;12318;51.262;7.066;2023-01-01T03:33:22;14.40;92.60
24162;DHT22;12318;51.262;7.066;2023-01-01T03:35:58;14.40;92.70
24162;DHT22;12318;51.262;7.066;2023-01-01T03:38:35;14.50;92.80
24162;DHT22;12318;51.262;7.066;2023-01-01T03:41:10;14.40;92.80
24162;DHT22;12318;51.262;7.066;2023-01-01T03:46:33;14.40;92.90
24162;DHT22;12318;51.262;7.066;2023-01-01T03:48:59;14.40;93.00
24162;DHT22;12318;51.262;7.066;2023-01-01T03:53:58;14.50;92.90
24162;DHT22;12318;51.262;7.066;2023-01-01T03:56:46;14.40;93.00
24162;DHT22;12318;51.262;7.066;2023-01-01T03:59:47;14.40;92.90
24162;DHT22;12318;51.262;7.066;2023-01-01T04:02:16;14.40;93.30
24162;DHT22;12318;51.262;7.066;2023-01-01T04:04:46;14.30;93.40
24162;DHT22;12318;51.262;7.066;2023-01-01T04:07:12;14.40;93.50
24162;DHT22;12318;51.262;7.066;2023-01-01T04:09:39;14.40;93.30
24162;DHT22;12318;51.262;7.066;2023-01-01T04:12:09;14.50;93.40
24162;DHT22;12318;51.262;7.066;2023-01-01T04:14:38;14.50;93.30
24162;DHT22;12318;51.262;7.066;2023-01-01T04:17:06;14.50;93.40
24162;DHT22;12318;51.262;7.066;2023-01-01T04:19:32;14.50;93.50
24162;DHT22;12318;51.262;7.066;2023-01-01T04:21:58;14.50;93.60
24162;DHT22;12318;51.262;7.066;2023-01-01T04:24:24;14.50;93.60
24162;DHT22;12318;51.262;7.066;2023-01-01T04:26:51;14.40;93.90
24162;DHT22;12318;51.262;7.066;2023-01-01T04:29:17;14.40;93.90
24162;DHT22;12318;51.262;7.066;2023-01-01T04:31:43;14.40;93.90
24162;DHT22;12318;51.262;7.066;2023-01-01T04:34:09;14.40;94.20
24162;DHT22;12318;51.262;7.066;2023-01-01T04:36:35;14.30;94.40
24162;DHT22;12318;51.262;7.066;2023-01-01T04:39:01;14.40;94.20
24162;DHT22;12318;51.262;7.066;2023-01-01T04:41:27;14.50;94.20
24162;DHT22;12318;51.262;7.066;2023-01-01T04:43:52;14.50;94.30
24162;DHT22;12318;51.262;7.066;2023-01-01T04:46:19;14.50;94.50
24162;DHT22;12318;51.262;7.066;2023-01-01T04:48:46;14.50;94.30
24162;DHT22;12318;51.262;7.066;2023-01-01T04:51:12;14.40;94.50
24162;DHT22;12318;51.262;7.066;2023-01-01T04:53:39;14.40;94.50
24162;DHT22;12318;51.262;7.066;2023-01-01T04:56:09;14.40;95.00
24162;DHT22;12318;51.262;7.066;2023-01-01T04:58:37;14.40;94.60
24162;DHT22;12318;51.262;7.066;2023-01-01T05:01:04;14.40;94.80
24162;DHT22;12318;51.262;7.066;2023-01-01T05:03:30;14.40;94.90
24162;DHT22;12318;51.262;7.066;2023-01-01T05:08:30;14.30;95.00
24162;DHT22;12318;51.262;7.066;2023-01-01T05:11:00;14.30;95.00
24162;DHT22;12318;51.262;7.066;2023-01-01T05:13:26;14.30;95.10
24162;DHT22;12318;51.262;7.066;2023-01-01T05:15:52;14.30;95.30
24162;DHT22;12318;51.262;7.066;2023-01-01T05:18:18;14.30;95.30
24162;DHT22;12318;51.262;7.066;2023-01-01T05:20:43;14.30;95.30
24162;DHT22;12318;51.262;7.066;2023-01-01T05:23:09;14.30;95.50
24162;DHT22;12318;51.262;7.066;2023-01-01T05:25:35;14.30;95.60
24162;DHT22;12318;51.262;7.066;2023-01-01T05:28:00;14.20;95.70
24162;DHT22;12318;51.262;7.066;2023-01-01T05:30:26;14.20;95.60
24162;DHT22;12318;51.262;7.066;2023-01-01T05:32:52;14.20;95.80
24162;DHT22;12318;51.262;7.066;2023-01-01T05:35:17;14.20;95.90
24162;DHT22;12318;51.262;7.066;2023-01-01T05:37:43;14.20;95.90
24162;DHT22;12318;51.262;7.066;2023-01-01T05:40:09;14.20;96.10
24162;DHT22;12318;51.262;7.066;2023-01-01T05:42:35;14.20;96.10
24162;DHT22;12318;51.262;7.066;2023-01-01T05:45:01;14.30;95.90
24162;DHT22;12318;51.262;7.066;2023-01-01T05:47:28;14.30;95.90
24162;DHT22;12318;51.262;7.066;2023-01-01T05:49:53;14.20;96.10
24162;DHT22;12318;51.262;7.066;2023-01-01T05:52:19;14.20;96.10
24162;DHT22;12318;51.262;7.066;2023-01-01T05:54:45;14.30;96.00
24162;DHT22;12318;51.262;7.066;2023-01-01T05:57:10;14.30;96.00
24162;DHT22;12318;51.262;7.066;2023-01-01T05:59:36;14.30;96.10
24162;DHT22;12318;51.262;7.066;2023-01-01T06:02:02;14.30;96.20
24162;DHT22;12318;51.262;7.066;2023-01-01T06:04:27;14.30;96.40
24162;DHT22;12318;51.262;7.066;2023-01-01T06:06:53;14.30;96.60
24162;DHT22;12318;51.262;7.066;2023-01-01T06:09:19;14.30;96.60
24162;DHT22;12318;51.262;7.066;2023-01-01T06:11:45;14.20;96.60
24162;DHT22;12318;51.262;7.066;2023-01-01T06:14:10;14.10;96.90
24162;DHT22;12318;51.262;7.066;2023-01-01T06:16:36;14.10;96.80
24162;DHT22;12318;51.262;7.066;2023-01-01T06:19:02;14.10;96.80
24162;DHT22;12318;51.262;7.066;2023-01-01T06:21:28;14.10;97.20
24162;DHT22;12318;51.262;7.066;2023-01-01T06:23:56;14.00;97.70
24162;DHT22;12318;51.262;7.066;2023-01-01T06:26:27;14.10;98.10
24162;DHT22;12318;51.262;7.066;2023-01-01T06:28:54;14.00;98.30
24162;DHT22;12318;51.262;7.066;2023-01-01T06:31:21;14.00;97.90
24162;DHT22;12318;51.262;7.066;2023-01-01T06:33:48;14.00;97.70
24162;DHT22;12318;51.262;7.066;2023-01-01T06:36:17;14.00;97.90
24162;DHT22;12318;51.262;7.066;2023-01-01T06:38:45;14.10;97.90
24162;DHT22;12318;51.262;7.066;2023-01-01T06:41:22;14.10;97.90
24162;DHT22;12318;51.262;7.066;2023-01-01T06:43:48;14.10;97.90
24162;DHT22;12318;51.262;7.066;2023-01-01T06:46:26;14.10;98.20
24162;DHT22;12318;51.262;7.066;2023-01-01T06:48:56;14.10;98.60
24162;DHT22;12318;51.262;7.066;2023-01-01T06:51:24;14.10;98.20
24162;DHT22;12318;51.262;7.066;2023-01-01T06:53:50;14.10;98.30
24162;DHT22;12318;51.262;7.066;2023-01-01T06:56:16;14.00;98.60
24162;DHT22;12318;51.262;7.066;2023-01-01T06:58:42;14.10;98.80
24162;DHT22;12318;51.262;7.066;2023-01-01T07:01:32;14.10;98.60
24162;DHT22;12318;51.262;7.066;2023-01-01T07:04:05;14.10;99.10
24162;DHT22;12318;51.262;7.066;2023-01-01T07:06:33;14.10;98.70
24162;DHT22;12318;51.262;7.066;2023-01-01T07:08:59;14.10;98.60
24162;DHT22;12318;51.262;7.066;2023-01-01T07:11:25;14.20;98.60
24162;DHT22;12318;51.262;7.066;2023-01-01T07:13:51;14.20;98.70
24162;DHT22;12318;51.262;7.066;2023-01-01T07:16:16;14.10;98.70
24162;DHT22;12318;51.262;7.066;2023-01-01T07:18:42;14.10;98.70
24162;DHT22;12318;51.262;7.066;2023-01-01T07:21:45;14.10;98.70
24162;DHT22;12318;51.262;7.066;2023-01-01T07:24:14;14.20;98.70
24162;DHT22;12318;51.262;7.066;2023-01-01T07:26:40;14.20;98.80
24162;DHT22;12318;51.262;7.066;2023-01-01T07:29:06;14.20;98.80
24162;DHT22;12318;51.262;7.066;2023-01-01T07:31:36;14.30;99.10
24162;DHT22;12318;51.262;7.066;2023-01-01T07:34:02;14.20;99.60
24162;DHT22;12318;51.262;7.066;2023-01-01T07:36:28;14.10;99.90
24162;DHT22;12318;51.262;7.066;2023-01-01T07:38:53;14.10;99.90
24162;DHT22;12318;51.262;7.066;2023-01-01T07:41:19;14.00;99.90
24162;DHT22;12318;51.262;7.066;2023-01-01T07:43:45;13.90;99.90
24162;DHT22;12318;51.262;7.066;2023-01-01T07:46:14;13.80;99.90
24162;DHT22;12318;51.262;7.066;2023-01-01T07:48:43;13.90;99.90
24162;DHT22;12318;51.262;7.066;2023-01-01T07:51:09;13.90;99.90
24162;DHT22;12318;51.262;7.066;2023-01-01T07:53:35;13.80;99.90
24162;DHT22;12318;51.262;7.066;2023-01-01T07:56:01;13.70;99.90
24162;DHT22;12318;51.262;7.066;2023-01-01T07:58:27;13.70;99.90
24162;DHT22;12318;51.262;7.066;2023-01-01T08:00:52;13.60;99.90
24162;DHT22;12318;51.262;7.066;2023-01-01T08:03:18;13.50;99.90
24162;DHT22;12318;51.262;7.066;2023-01-01T08:05:44;13.50;99.90
24162;DHT22;12318;51.262;7.066;2023-01-01T08:08:10;13.30;99.90
24162;DHT22;12318;51.262;7.066;2023-01-01T08:10:36;13.30;99.90
24162;DHT22;12318;51.262;7.066;2023-01-01T08:13:04;13.30;99.90
24162;DHT22;12318;51.262;7.066;2023-01-01T08:15:30;13.30;99.90
24162;DHT22;12318;51.262;7.066;2023-01-01T08:17:57;13.30;99.90
24162;DHT22;12318;51.262;7.066;2023-01-01T08:20:23;13.30;99.90
24162;DHT22;12318;51.262;7.066;2023-01-01T08:22:48;13.30;99.90
24162;DHT22;12318;51.262;7.066;2023-01-01T08:25:14;13.30;99.90
24162;DHT22;12318;51.262;7.066;2023-01-01T08:27:40;13.30;99.90
24162;DHT22;12318;51.262;7.066;2023-01-01T08:30:08;13.40;99.90
24162;DHT22;12318;51.262;7.066;2023-01-01T08:32:35;13.30;99.90
24162;DHT22;12318;51.262;7.066;2023-01-01T08:35:00;13.30;99.90
24162;DHT22;12318;51.262;7.066;2023-01-01T08:37:26;13.40;99.90
24162;DHT22;12318;51.262;7.066;2023-01-01T08:39:52;13.40;99.90
24162;DHT22;12318;51.262;7.066;2023-01-01T08:42:18;13.40;99.90
24162;DHT22;12318;51.262;7.066;2023-01-01T08:44:43;13.40;99.90
24162;DHT22;12318;51.262;7.066;2023-01-01T08:47:20;13.40;99.90
24162;DHT22;12318;51.262;7.066;2023-01-01T08:49:46;13.50;99.90
24162;DHT22;12318;51.262;7.066;2023-01-01T08:52:13;13.50;99.90
24162;DHT22;12318;51.262;7.066;2023-01-01T08:54:39;13.60;99.90
24162;DHT22;12318;51.262;7.066;2023-01-01T08:57:05;13.60;99.90
24162;DHT22;12318;51.262;7.066;2023-01-01T08:59:31;13.60;99.90
24162;DHT22;12318;51.262;7.066;2023-01-01T09:01:56;13.60;99.90
24162;DHT22;12318;51.262;7.066;2023-01-01T09:04:24;13.60;99.90
24162;DHT22;12318;51.262;7.066;2023-01-01T09:06:50;13.60;99.90
24162;DHT22;12318;51.262;7.066;2023-01-01T09:09:15;13.60;99.90
24162;DHT22;12318;51.262;7.066;2023-01-01T09:11:49;13.70;99.90
24162;DHT22;12318;51.262;7.066;2023-01-01T09:14:16;13.70;99.90
24162;DHT22;12318;51.262;7.066;2023-01-01T09:16:41;13.70;99.90
24162;DHT22;12318;51.262;7.066;2023-01-01T09:19:07;13.60;99.90
24162;DHT22;12318;51.262;7.066;2023-01-01T09:21:33;13.60;99.90
24162;DHT22;12318;51.262;7.066;2023-01-01T09:23:58;13.70;99.90
24162;DHT22;12318;51.262;7.066;2023-01-01T09:26:24;13.70;99.90
24162;DHT22;12318;51.262;7.066;2023-01-01T09:28:50;13.70;99.90
24162;DHT22;12318;51.262;7.066;2023-01-01T09:31:16;13.70;99.90
24162;DHT22;12318;51.262;7.066;2023-01-01T09:33:41;13.70;99.90
24162;DHT22;12318;51.262;7.066;2023-01-01T09:36:11;13.60;99.90
24162;DHT22;12318;51.262;7.066;2023-01-01T09:38:38;13.60;99.90
24162;DHT22;12318;51.262;7.066;2023-01-01T09:41:10;13.70;99.90
24162;DHT22;12318;51.262;7.066;2023-01-01T09:46:25;13.80;99.90
24162;DHT22;12318;51.262;7.066;2023-01-01T09:49:00;13.70;99.90
24162;DHT22;12318;51.262;7.066;2023-01-01T09:51:31;13.70;99.90
24162;DHT22;12318;51.262;7.066;2023-01-01T09:56:29;13.70;99.90
24162;DHT22;12318;51.262;7.066;2023-01-01T09:58:56;13.70;99.90
24162;DHT22;12318;51.262;7.066;2023-01-01T10:04:35;13.80;99.90
24162;DHT22;12318;51.262;7.066;2023-01-01T10:10:46;13.70;99.90
24162;DHT22;12318;51.262;7.066;2023-01-01T10:15:20;13.70;99.90
24162;DHT22;12318;51.262;7.066;2023-01-01T10:17:50;13.80;99.90
24162;DHT22;12318;51.262;7.066;2023-01-01T10:20:26;13.80;99.90
24162;DHT22;12318;51.262;7.066;2023-01-01T10:22:58;13.80;99.90
24162;DHT22;12318;51.262;7.066;2023-01-01T10:25:27;13.70;99.90
24162;DHT22;12318;51.262;7.066;2023-01-01T10:28:06;13.60;99.90
24162;DHT22;12318;51.262;7.066;2023-01-01T10:30:35;13.70;99.90
24162;DHT22;12318;51.262;7.066;2023-01-01T10:33:04;13.80;99.90
24162;DHT22;12318;51.262;7.066;2023-01-01T10:35:36;13.80;99.90
24162;DHT22;12318;51.262;7.066;2023-01-01T10:38:04;13.80;99.90
24162;DHT22;12318;51.262;7.066;2023-01-01T10:40:31;13.70;99.90
24162;DHT22;12318;51.262;7.066;2023-01-01T10:42:59;13.70;99.90
24162;DHT22;12318;51.262;7.066;2023-01-01T10:45:35;13.80;99.90
24162;DHT22;12318;51.262;7.066;2023-01-01T10:48:23;13.80;99.90
24162;DHT22;12318;51.262;7.066;2023-01-01T10:50:53;13.80;99.90
24162;DHT22;12318;51.262;7.066;2023-01-01T10:53:33;13.80;99.90
24162;DHT22;12318;51.262;7.066;2023-01-01T10:56:17;13.80;99.90
24162;DHT22;12318;51.262;7.066;2023-01-01T10:58:54;13.80;99.90
24162;DHT22;12318;51.262;7.066;2023-01-01T11:01:26;13.80;99.90
24162;DHT22;12318;51.262;7.066;2023-01-01T11:03:56;13.70;99.90
24162;DHT22;12318;51.262;7.066;2023-01-01T11:06:25;13.70;99.90
24162;DHT22;12318;51.262;7.066;2023-01-01T11:08:53;13.70;99.90
24162;DHT22;12318;51.262;7.066;2023-01-01T11:11:31;13.80;99.90
24162;DHT22;12318;51.262;7.066;2023-01-01T11:14:01;13.80;99.90
24162;DHT22;12318;51.262;7.066;2023-01-01T11:16:33;13.80;99.90
24162;DHT22;12318;51.262;7.066;2023-01-01T11:19:05;13.70;99.90
24162;DHT22;12318;51.262;7.066;2023-01-01T11:21:33;13.80;99.90
24162;DHT22;12318;51.262;7.066;2023-01-01T11:24:31;13.80;99.90
24162;DHT22;12318;51.262;7.066;2023-01-01T11:27:31;13.80;99.90
24162;DHT22;12318;51.262;7.066;2023-01-01T11:32:47;13.90;99.90
24162;DHT22;12318;51.262;7.066;2023-01-01T11:35:20;13.90;99.90
24162;DHT22;12318;51.262;7.066;2023-01-01T11:37:48;13.90;99.90
24162;DHT22;12318;51.262;7.066;2023-01-01T11:42:56;13.90;99.90
24162;DHT22;12318;51.262;7.066;2023-01-01T11:48:01;13.80;99.90
24162;DHT22;12318;51.262;7.066;2023-01-01T11:50:55;13.80;99.90
24162;DHT22;12318;51.262;7.066;2023-01-01T11:56:21;13.70;99.90
24162;DHT22;12318;51.262;7.066;2023-01-01T11:59:01;13.70;99.90
24162;DHT22;12318;51.262;7.066;2023-01-01T12:01:38;13.80;99.90
24162;DHT22;12318;51.262;7.066;2023-01-01T12:06:58;13.80;99.90
24162;DHT22;12318;51.262;7.066;2023-01-01T12:09:59;13.80;99.90
24162;DHT22;12318;51.262;7.066;2023-01-01T12:12:37;13.70;99.90
24162;DHT22;12318;51.262;7.066;2023-01-01T12:15:22;13.80;99.90
24162;DHT22;12318;51.262;7.066;2023-01-01T12:17:59;13.90;99.90
24162;DHT22;12318;51.262;7.066;2023-01-01T12:20:29;14.00;99.90
24162;DHT22;12318;51.262;7.066;2023-01-01T12:22:57;13.80;99.90
24162;DHT22;12318;51.262;7.066;2023-01-01T12:25:37;13.80;99.90
24162;DHT22;12318;51.262;7.066;2023-01-01T12:31:10;13.80;99.90
24162;DHT22;12318;51.262;7.066;2023-01-01T12:42:44;13.80;99.90
24162;DHT22;12318;51.262;7.066;2023-01-01T12:58:36;13.90;99.90
24162;DHT22;12318;51.262;7.066;2023-01-01T13:01:12;13.90;99.90
24162;DHT22;12318;51.262;7.066;2023-01-01T13:06:11;13.80;99.90
24162;DHT22;12318;51.262;7.066;2023-01-01T13:08:41;13.90;99.90
24162;DHT22;12318;51.262;7.066;2023-01-01T13:11:09;13.90;99.90
24162;DHT22;12318;51.262;7.066;2023-01-01T13:13:37;13.80;99.90
24162;DHT22;12318;51.262;7.066;2023-01-01T13:16:02;13.90;99.90
24162;DHT22;12318;51.262;7.066;2023-01-01T13:18:33;13.90;99.90
24162;DHT22;12318;51.262;7.066;2023-01-01T13:23:43;13.90;99.90
24162;DHT22;12318;51.262;7.066;2023-01-01T13:34:38;13.80;99.90
24162;DHT22;12318;51.262;7.066;2023-01-01T13:54:16;13.70;99.90
24162;DHT22;12318;51.262;7.066;2023-01-01T13:57:19;13.80;99.90
24162;DHT22;12318;51.262;7.066;2023-01-01T14:02:55;13.80;99.90
24162;DHT22;12318;51.262;7.066;2023-01-01T14:08:29;13.50;99.90
24162;DHT22;12318;51.262;7.066;2023-01-01T14:10:56;13.50;99.90
24162;DHT22;12318;51.262;7.066;2023-01-01T14:13:22;13.50;99.90
24162;DHT22;12318;51.262;7.066;2023-01-01T14:15:55;13.60;99.90
24162;DHT22;12318;51.262;7.066;2023-01-01T14:18:47;13.60;99.90
24162;DHT22;12318;51.262;7.066;2023-01-01T14:21:16;13.60;99.90
24162;DHT22;12318;51.262;7.066;2023-01-01T14:23:45;13.60;99.90
24162;DHT22;12318;51.262;7.066;2023-01-01T14:26:14;13.70;99.90
24162;DHT22;12318;51.262;7.066;2023-01-01T14:28:41;13.70;99.90
24162;DHT22;12318;51.262;7.066;2023-01-01T14:31:19;13.70;99.90
24162;DHT22;12318;51.262;7.066;2023-01-01T14:33:46;13.70;99.90
24162;DHT22;12318;51.262;7.066;2023-01-01T14:36:26;13.60;99.90
24162;DHT22;12318;51.262;7.066;2023-01-01T14:38:54;13.60;99.90
24162;DHT22;12318;51.262;7.066;2023-01-01T14:43:48;13.60;99.90
24162;DHT22;12318;51.262;7.066;2023-01-01T14:46:20;13.60;99.90
24162;DHT22;12318;51.262;7.066;2023-01-01T14:48:49;13.50;99.90
24162;DHT22;12318;51.262;7.066;2023-01-01T14:51:22;13.50;99.90
24162;DHT22;12318;51.262;7.066;2023-01-01T14:53:57;13.50;99.90
24162;DHT22;12318;51.262;7.066;2023-01-01T14:56:27;13.50;99.90
24162;DHT22;12318;51.262;7.066;2023-01-01T15:01:28;13.50;99.90
24162;DHT22;12318;51.262;7.066;2023-01-01T15:04:03;13.50;99.90
24162;DHT22;12318;51.262;7.066;2023-01-01T15:06:29;13.50;99.90
24162;DHT22;12318;51.262;7.066;2023-01-01T15:08:55;13.50;99.90
24162;DHT22;12318;51.262;7.066;2023-01-01T15:11:25;13.40;99.90
24162;DHT22;12318;51.262;7.066;2023-01-01T15:13:59;13.40;99.90
24162;DHT22;12318;51.262;7.066;2023-01-01T15:16:26;13.30;99.90
24162;DHT22;12318;51.262;7.066;2023-01-01T15:18:53;13.30;99.90
24162;DHT22;12318;51.262;7.066;2023-01-01T15:21:32;13.40;99.90
24162;DHT22;12318;51.262;7.066;2023-01-01T15:28:58;13.30;99.90
24162;DHT22;12318;51.262;7.066;2023-01-01T15:31:36;13.20;99.90
24162;DHT22;12318;51.262;7.066;2023-01-01T15:34:04;13.10;99.90
24162;DHT22;12318;51.262;7.066;2023-01-01T15:36:31;13.00;99.90
24162;DHT22;12318;51.262;7.066;2023-01-01T15:38:57;12.90;99.90
24162;DHT22;12318;51.262;7.066;2023-01-01T15:41:44;12.90;99.90
24162;DHT22;12318;51.262;7.066;2023-01-01T15:47:15;12.80;99.90
24162;DHT22;12318;51.262;7.066;2023-01-01T15:49:41;12.70;99.90
24162;DHT22;12318;51.262;7.066;2023-01-01T15:52:22;12.70;99.90
24162;DHT22;12318;51.262;7.066;2023-01-01T15:54:51;12.60;99.90
24162;DHT22;12318;51.262;7.066;2023-01-01T15:57:20;12.60;99.90
24162;DHT22;12318;51.262;7.066;2023-01-01T15:59:47;12.60;99.90
24162;DHT22;12318;51.262;7.066;2023-01-01T16:02:33;12.60;99.90
24162;DHT22;12318;51.262;7.066;2023-01-01T16:05:01;12.60;99.90
24162;DHT22;12318;51.262;7.066;2023-01-01T16:07:27;12.60;99.90
24162;DHT22;12318;51.262;7.066;2023-01-01T16:09:53;12.60;99.90
24162;DHT22;12318;51.262;7.066;2023-01-01T16:12:20;12.60;99.90
24162;DHT22;12318;51.262;7.066;2023-01-01T16:14:45;12.60;99.90
24162;DHT22;12318;51.262;7.066;2023-01-01T16:17:14;12.60;99.90
24162;DHT22;12318;51.262;7.066;2023-01-01T16:19:41;12.60;99.90
24162;DHT22;12318;51.262;7.066;2023-01-01T16:22:11;12.50;99.90
24162;DHT22;12318;51.262;7.066;2023-01-01T16:24:37;12.40;99.90
24162;DHT22;12318;51.262;7.066;2023-01-01T16:27:03;12.30;99.90
24162;DHT22;12318;51.262;7.066;2023-01-01T16:29:40;12.40;99.90
24162;DHT22;12318;51.262;7.066;2023-01-01T16:32:25;12.20;99.90
24162;DHT22;12318;51.262;7.066;2023-01-01T16:39:44;12.00;99.90
24162;DHT22;12318;51.262;7.066;2023-01-01T16:42:47;11.90;99.90
24162;DHT22;12318;51.262;7.066;2023-01-01T16:45:17;11.90;99.90
24162;DHT22;12318;51.262;7.066;2023-01-01T16:51:37;11.80;99.90
24162;DHT22;12318;51.262;7.066;2023-01-01T17:01:42;11.60;99.90
24162;DHT22;12318;51.262;7.066;2023-01-01T17:04:10;11.60;99.90
24162;DHT22;12318;51.262;7.066;2023-01-01T17:06:39;11.60;99.90
24162;DHT22;12318;51.262;7.066;2023-01-01T17:09:20;11.50;99.90
24162;DHT22;12318;51.262;7.066;2023-01-01T17:14:50;11.40;99.90
24162;DHT22;12318;51.262;7.066;2023-01-01T17:17:19;11.50;99.90
24162;DHT22;12318;51.262;7.066;2023-01-01T17:19:45;11.40;99.90
24162;DHT22;12318;51.262;7.066;2023-01-01T17:22:10;11.30;99.90
24162;DHT22;12318;51.262;7.066;2023-01-01T17:24:36;11.30;99.90
24162;DHT22;12318;51.262;7.066;2023-01-01T17:27:02;11.30;99.90
24162;DHT22;12318;51.262;7.066;2023-01-01T17:29:28;11.30;99.90
24162;DHT22;12318;51.262;7.066;2023-01-01T17:31:53;11.30;99.90
24162;DHT22;12318;51.262;7.066;2023-01-01T17:34:19;11.30;99.90
24162;DHT22;12318;51.262;7.066;2023-01-01T17:36:48;11.40;99.90
24162;DHT22;12318;51.262;7.066;2023-01-01T17:39:14;11.40;99.90
24162;DHT22;12318;51.262;7.066;2023-01-01T17:41:41;11.40;99.90
24162;DHT22;12318;51.262;7.066;2023-01-01T17:44:08;11.40;99.90
24162;DHT22;12318;51.262;7.066;2023-01-01T17:46:35;11.40;99.90
24162;DHT22;12318;51.262;7.066;2023-01-01T17:49:02;11.40;99.90
24162;DHT22;12318;51.262;7.066;2023-01-01T17:51:33;11.40;99.90
24162;DHT22;12318;51.262;7.066;2023-01-01T17:53:59;11.30;99.90
24162;DHT22;12318;51.262;7.066;2023-01-01T17:56:27;11.30;99.90
24162;DHT22;12318;51.262;7.066;2023-01-01T17:58:54;11.40;99.90
24162;DHT22;12318;51.262;7.066;2023-01-01T18:03:50;11.30;99.90
24162;DHT22;12318;51.262;7.066;2023-01-01T18:06:17;11.30;99.90
24162;DHT22;12318;51.262;7.066;2023-01-01T18:08:43;11.30;99.90
24162;DHT22;12318;51.262;7.066;2023-01-01T18:11:09;11.30;99.90
24162;DHT22;12318;51.262;7.066;2023-01-01T18:13:35;11.30;99.90
24162;DHT22;12318;51.262;7.066;2023-01-01T18:16:06;11.30;99.90
24162;DHT22;12318;51.262;7.066;2023-01-01T18:18:36;11.40;99.90
24162;DHT22;12318;51.262;7.066;2023-01-01T18:21:08;11.30;99.90